Time;durP1;ratioP1;P1;durP2;ratioP2;P2;SDS_P1;SDS_P2;PMS_P1;PMS_P2;Temp;Humidity;BMP_temperature;BMP_pressure;BME280_temperature;BME280_humidity;BME280_pressure;Samples;Min_cycle;Max_cycle;Signal;HPM_P1;HPM_P2
2023/12/05 00:00:27;;;;;;;19.60;13.18;;;;;;;3.16;97.58;100203.06;5092665;28;20032;-78
2023/12/05 00:02:53;;;;;;;21.05;12.50;;;;;;;3.16;98.37;100206.69;5073865;28;20023;-77
2023/12/05 00:05:18;;;;;;;21.60;13.73;;;;;;;3.22;98.20;100211.13;5107749;28;20096;-78
2023/12/05 00:07:44;;;;;;;17.75;12.73;;;;;;;3.33;97.59;100223.09;5111849;28;20023;-78
2023/12/05 00:10:09;;;;;;;17.45;12.18;;;;;;;3.47;97.72;100233.66;5111712;28;20077;-78
2023/12/05 00:12:35;;;;;;;26.20;13.75;;;;;;;3.43;97.02;100229.75;5092765;28;20023;-78
2023/12/05 00:15:00;;;;;;;18.48;12.77;;;;;;;3.49;96.86;100223.16;5107449;28;20489;-78
2023/12/05 00:17:26;;;;;;;19.60;13.80;;;;;;;3.39;97.56;100221.19;5091117;28;20030;-78
2023/12/05 00:19:51;;;;;;;16.40;11.77;;;;;;;3.30;98.38;100225.56;5091228;28;20020;-78
2023/12/05 00:22:17;;;;;;;20.63;13.38;;;;;;;3.31;97.54;100216.16;5091257;28;20028;-78
2023/12/05 00:24:43;;;;;;;20.17;12.80;;;;;;;3.26;97.27;100207.81;5091124;28;20050;-78
2023/12/05 00:27:09;;;;;;;18.13;11.88;;;;;;;3.09;97.67;100192.25;5091703;28;20127;-78
2023/12/05 00:29:36;;;;;;;18.92;12.07;;;;;;;3.06;98.23;100199.13;5091131;28;20020;-78
2023/12/05 00:32:01;;;;;;;20.13;12.85;;;;;;;3.13;98.66;100193.38;5073084;28;20020;-77
2023/12/05 00:34:27;;;;;;;21.75;12.85;;;;;;;2.95;97.83;100194.63;5099657;28;20515;-77
2023/12/05 00:36:52;;;;;;;18.70;12.13;;;;;;;2.98;99.02;100188.59;5093279;28;20016;-78
2023/12/05 00:39:18;;;;;;;23.05;12.80;;;;;;;3.00;99.26;100180.03;5102710;28;20031;-78
2023/12/05 00:41:43;;;;;;;17.73;11.90;;;;;;;2.97;100.00;100180.56;5072868;28;20466;-77
2023/12/05 00:44:08;;;;;;;15.75;11.95;;;;;;;3.06;99.77;100187.25;5072895;28;20115;-77
2023/12/05 00:46:34;;;;;;;20.63;11.65;;;;;;;2.98;99.46;100180.31;5090970;28;20024;-78
2023/12/05 00:48:59;;;;;;;21.92;12.02;;;;;;;3.04;99.24;100201.34;5072821;28;20023;-78
2023/12/05 00:51:25;;;;;;;16.17;11.65;;;;;;;2.98;99.54;100193.28;5088786;28;20023;-78
2023/12/05 00:53:50;;;;;;;19.50;11.90;;;;;;;2.95;99.41;100175.28;5093051;28;20019;-78
2023/12/05 00:56:17;;;;;;;15.65;11.25;;;;;;;2.86;99.57;100176.91;5092755;28;20500;-78
2023/12/05 00:58:43;;;;;;;16.88;10.15;;;;;;;2.81;100.00;100161.13;5111107;28;20012;-78
2023/12/05 01:01:08;;;;;;;19.35;11.90;;;;;;;2.88;100.00;100177.47;5111267;28;20032;-78
2023/12/05 01:03:34;;;;;;;15.38;10.15;;;;;;;2.90;100.00;100167.81;5078798;28;20077;-78
2023/12/05 01:05:59;;;;;;;17.90;11.15;;;;;;;2.90;100.00;100148.47;5082641;28;20024;-77
2023/12/05 01:08:25;;;;;;;17.42;11.25;;;;;;;2.89;100.00;100159.78;5083403;28;20123;-78
2023/12/05 01:10:50;;;;;;;16.95;11.13;;;;;;;2.90;100.00;100165.06;5072942;28;20115;-78
2023/12/05 01:13:16;;;;;;;20.35;10.68;;;;;;;2.80;100.00;100151.19;5090746;28;20047;-78
2023/12/05 01:15:41;;;;;;;15.02;10.60;;;;;;;2.71;100.00;100147.22;5089967;28;20023;-78
2023/12/05 01:18:07;;;;;;;13.23;9.90;;;;;;;2.80;100.00;100156.69;5111169;28;20020;-78
2023/12/05 01:20:33;;;;;;;15.93;10.15;;;;;;;2.76;100.00;100150.88;5111062;28;20440;-78
2023/12/05 01:22:58;;;;;;;16.92;10.15;;;;;;;2.80;100.00;100137.34;5091379;28;20501;-78
2023/12/05 01:25:24;;;;;;;15.07;10.55;;;;;;;2.82;100.00;100146.22;5090773;28;20072;-78
2023/12/05 01:27:50;;;;;;;17.35;10.27;;;;;;;2.76;100.00;100141.72;5108603;28;20032;-77
2023/12/05 01:30:16;;;;;;;14.57;9.63;;;;;;;2.81;100.00;100141.78;5090340;28;20028;-77
2023/12/05 01:32:41;;;;;;;12.70;9.55;;;;;;;2.79;100.00;100141.22;5094332;28;20028;-77
2023/12/05 01:35:07;;;;;;;16.92;10.45;;;;;;;2.93;100.00;100141.56;5106701;28;20031;-77
2023/12/05 01:37:32;;;;;;;13.70;9.50;;;;;;;2.92;100.00;100128.84;5086359;28;20118;-77
2023/12/05 01:39:58;;;;;;;19.98;9.77;;;;;;;2.75;100.00;100123.50;5086540;28;20412;-77
2023/12/05 01:42:23;;;;;;;19.65;10.48;;;;;;;2.76;100.00;100117.72;5094413;28;20127;-77
2023/12/05 01:44:49;;;;;;;16.85;10.70;;;;;;;2.98;100.00;100126.94;5075846;28;20020;-77
2023/12/05 01:47:16;;;;;;;13.30;8.88;;;;;;;2.86;100.00;100133.50;5094190;28;20027;-77
2023/12/05 01:49:42;;;;;;;14.60;9.73;;;;;;;2.89;100.00;100123.88;5093968;28;20081;-77
2023/12/05 01:52:08;;;;;;;15.50;9.35;;;;;;;2.85;100.00;100133.78;5114217;28;20523;-78
2023/12/05 01:54:34;;;;;;;17.33;10.32;;;;;;;2.81;100.00;100114.97;5114259;28;20035;-77
2023/12/05 01:57:00;;;;;;;15.52;10.15;;;;;;;2.90;100.00;100118.06;5112459;28;20431;-77
2023/12/05 01:59:26;;;;;;;18.98;10.23;;;;;;;2.92;100.00;100118.63;5114311;28;20445;-77
2023/12/05 02:01:52;;;;;;;15.88;9.50;;;;;;;2.94;100.00;100107.28;5109952;28;20027;-77
2023/12/05 02:04:19;;;;;;;17.05;10.98;;;;;;;2.98;100.00;100126.94;5106045;28;20024;-77
2023/12/05 02:06:49;;;;;;;16.55;10.13;;;;;;;2.81;100.00;100103.09;5113939;28;20020;-77
2023/12/05 02:09:15;;;;;;;16.58;10.27;;;;;;;2.89;100.00;100116.38;5113951;28;20024;-77
2023/12/05 02:11:43;;;;;;;19.67;12.35;;;;;;;2.86;100.00;100111.41;5113833;28;20028;-77
2023/12/05 02:14:09;;;;;;;15.98;9.30;;;;;;;2.92;100.00;100107.59;5094052;28;20027;-77
2023/12/05 02:16:38;;;;;;;14.88;10.13;;;;;;;2.75;100.00;100099.47;5113783;28;20020;-77
2023/12/05 02:19:22;;;;;;;18.23;10.60;;;;;;;2.84;100.00;100107.25;5113871;28;20023;-77
2023/12/05 02:21:52;;;;;;;17.20;11.00;;;;;;;2.92;100.00;100104.81;5113753;28;20492;-77
2023/12/05 02:24:37;;;;;;;12.88;9.80;;;;;;;2.75;100.00;100099.47;5095501;28;20023;-77
2023/12/05 02:27:29;;;;;;;21.58;10.07;;;;;;;2.79;100.00;100105.31;5102168;28;20032;-77
2023/12/05 02:29:54;;;;;;;14.73;9.82;;;;;;;2.91;100.00;100105.06;5078908;28;20104;-77
2023/12/05 02:32:20;;;;;;;16.23;9.90;;;;;;;2.89;100.00;100102.56;5095130;28;20028;-77
2023/12/05 02:34:46;;;;;;;14.50;10.00;;;;;;;2.89;100.00;100099.81;5103863;28;20024;-77
2023/12/05 02:37:43;;;;;;;15.60;9.65;;;;;;;2.80;100.00;100095.91;5074817;28;20076;-75
2023/12/05 02:40:21;;;;;;;18.50;11.30;;;;;;;2.86;100.00;100097.59;5110472;28;20036;-74
2023/12/05 02:42:50;;;;;;;16.08;10.35;;;;;;;3.01;100.00;100096.84;5094983;28;20134;-74
2023/12/05 02:45:19;;;;;;;17.00;10.75;;;;;;;2.92;100.00;100085.47;5091719;28;20396;-74
2023/12/05 02:47:48;;;;;;;14.45;10.23;;;;;;;3.02;100.00;100083.88;5092871;28;20024;-74
2023/12/05 02:50:20;;;;;;;14.73;9.93;;;;;;;2.95;100.00;100082.16;5098808;28;20024;-74
2023/12/05 02:52:46;;;;;;;15.35;9.88;;;;;;;3.00;100.00;100091.56;5112820;28;20027;-74
2023/12/05 02:55:11;;;;;;;17.15;10.10;;;;;;;2.90;100.00;100071.09;5113052;28;20031;-75
2023/12/05 02:57:37;;;;;;;16.92;10.82;;;;;;;3.00;100.00;100078.59;5113120;28;20055;-74
2023/12/05 03:00:06;;;;;;;17.13;9.80;;;;;;;2.88;100.00;100078.81;5093919;28;20035;-74
2023/12/05 03:02:31;;;;;;;15.63;10.10;;;;;;;2.93;100.00;100067.78;5103604;28;20020;-74
2023/12/05 03:04:57;;;;;;;14.32;9.93;;;;;;;3.11;99.94;100078.66;5102015;28;20035;-75
2023/12/05 03:07:22;;;;;;;17.60;9.57;;;;;;;3.29;98.99;100069.84;5088761;28;20023;-74
2023/12/05 03:09:48;;;;;;;16.58;10.50;;;;;;;3.17;98.49;100067.34;5112861;28;20058;-74
2023/12/05 03:12:13;;;;;;;16.25;10.30;;;;;;;3.14;99.07;100067.03;5112682;28;20020;-74
2023/12/05 03:14:39;;;;;;;12.98;9.23;;;;;;;3.04;98.95;100063.13;5103523;28;20069;-74
2023/12/05 03:17:04;;;;;;;15.73;9.73;;;;;;;3.30;98.41;100076.22;5073866;28;20020;-74
2023/12/05 03:19:30;;;;;;;18.02;10.73;;;;;;;3.31;98.10;100075.94;5101540;28;20023;-74
2023/12/05 03:21:55;;;;;;;16.30;10.35;;;;;;;3.50;97.07;100075.44;5094339;28;20022;-74
2023/12/05 03:24:21;;;;;;;20.25;12.75;;;;;;;3.64;96.58;100084.88;5087999;28;20023;-74
2023/12/05 03:26:46;;;;;;;14.65;10.07;;;;;;;3.63;94.63;100080.44;5073871;28;20020;-74
2023/12/05 03:29:12;;;;;;;18.38;11.10;;;;;;;3.78;93.33;100084.34;5092218;28;20023;-74
2023/12/05 03:31:39;;;;;;;20.15;10.45;;;;;;;3.81;93.30;100081.06;5108243;28;20427;-75
2023/12/05 03:34:06;;;;;;;16.40;10.68;;;;;;;3.77;93.42;100078.00;5110678;28;20047;-74
2023/12/05 03:36:32;;;;;;;16.88;10.40;;;;;;;3.78;93.82;100076.88;5104880;28;20123;-74
2023/12/05 03:38:57;;;;;;;22.73;13.30;;;;;;;3.91;93.67;100085.75;5091981;28;20047;-75
2023/12/05 03:41:22;;;;;;;21.50;13.05;;;;;;;3.93;93.27;100081.63;5073665;28;20036;-74
2023/12/05 03:43:48;;;;;;;18.45;11.98;;;;;;;3.97;92.19;100087.41;5073784;28;20465;-75
2023/12/05 03:46:14;;;;;;;16.17;10.68;;;;;;;3.99;92.60;100093.53;5091621;28;20028;-75
2023/12/05 03:48:39;;;;;;;14.32;9.45;;;;;;;4.00;92.18;100075.81;5097373;28;20019;-74
2023/12/05 03:51:05;;;;;;;18.95;11.32;;;;;;;3.98;91.77;100079.94;5103928;28;20028;-74
2023/12/05 03:53:30;;;;;;;17.27;10.50;;;;;;;3.82;92.39;100091.00;5073355;28;20028;-74
2023/12/05 03:55:56;;;;;;;15.27;10.45;;;;;;;3.76;91.82;100089.34;5090399;28;20016;-74
2023/12/05 03:58:21;;;;;;;17.20;9.98;;;;;;;3.82;91.95;100081.88;5073342;28;20144;-74
2023/12/05 04:00:47;;;;;;;16.15;9.27;;;;;;;3.91;91.12;100077.47;5093626;28;20054;-74
2023/12/05 04:03:13;;;;;;;17.05;10.23;;;;;;;3.62;91.07;100081.56;5073333;28;20400;-74
2023/12/05 04:05:39;;;;;;;16.55;9.40;;;;;;;3.54;91.87;100075.75;5106894;28;20039;-74
2023/12/05 04:08:05;;;;;;;16.00;10.00;;;;;;;3.62;92.02;100067.72;5108735;28;20036;-74
2023/12/05 04:10:30;;;;;;;18.52;10.65;;;;;;;3.82;91.64;100076.34;5091388;28;20028;-75
2023/12/05 04:12:56;;;;;;;15.98;9.75;;;;;;;3.88;90.51;100076.06;5083608;28;20035;-74
2023/12/05 04:15:22;;;;;;;16.17;10.57;;;;;;;3.90;90.12;100073.03;5093143;28;20116;-75
2023/12/05 04:17:47;;;;;;;17.27;10.27;;;;;;;3.86;89.50;100067.22;5111568;28;20030;-74
2023/12/05 04:20:13;;;;;;;19.35;10.15;;;;;;;3.95;89.66;100069.44;5093503;28;20035;-73
2023/12/05 04:22:39;;;;;;;16.13;10.13;;;;;;;3.86;89.13;100060.81;5111532;28;20023;-73
2023/12/05 04:25:04;;;;;;;18.98;11.52;;;;;;;3.67;91.02;100064.13;5097259;28;20039;-75
2023/12/05 04:27:31;;;;;;;18.75;10.93;;;;;;;3.69;91.13;100066.66;5091099;28;20140;-74
2023/12/05 04:29:56;;;;;;;17.45;9.73;;;;;;;3.57;91.89;100055.81;5093061;28;20024;-71
2023/12/05 04:32:21;;;;;;;16.25;10.27;;;;;;;3.46;92.20;100058.56;5093093;28;20465;-71
2023/12/05 04:34:48;;;;;;;18.20;11.18;;;;;;;3.55;91.69;100063.56;5084008;28;20040;-75
2023/12/05 04:37:13;;;;;;;19.13;10.52;;;;;;;3.62;91.67;100061.34;5102694;28;20082;-74
2023/12/05 04:39:40;;;;;;;17.27;10.80;;;;;;;3.78;90.83;100060.28;5111271;28;20031;-73
2023/12/05 04:42:06;;;;;;;17.88;11.35;;;;;;;3.77;91.97;100064.16;5084147;28;20063;-73
2023/12/05 04:44:31;;;;;;;16.52;9.88;;;;;;;3.61;92.07;100065.22;5090899;28;20050;-73
2023/12/05 04:47:03;;;;;;;16.48;10.55;;;;;;;3.74;91.95;100063.88;5100630;28;20132;-73
2023/12/05 04:49:29;;;;;;;17.17;10.90;;;;;;;3.82;91.94;100070.78;5099782;28;20039;-73
2023/12/05 04:51:55;;;;;;;19.42;11.48;;;;;;;3.75;91.64;100057.22;5072738;28;20085;-74
2023/12/05 04:54:21;;;;;;;24.00;12.70;;;;;;;3.86;91.64;100067.22;5091196;28;20103;-72
2023/12/05 04:56:46;;;;;;;19.52;11.43;;;;;;;3.86;91.28;100056.13;5090711;28;20108;-72
2023/12/05 04:59:12;;;;;;;20.63;13.57;;;;;;;3.84;91.34;100040.91;5072748;28;20559;-73
2023/12/05 05:01:37;;;;;;;22.60;12.05;;;;;;;3.85;91.10;100037.03;5096988;28;20467;-72
2023/12/05 05:04:03;;;;;;;31.08;11.10;;;;;;;3.87;91.32;100034.84;5078850;28;20141;-74
2023/12/05 05:06:28;;;;;;;16.65;11.10;;;;;;;3.93;90.99;100040.09;5115241;28;20035;-74
2023/12/05 05:08:54;;;;;;;22.67;12.18;;;;;;;3.90;91.38;100032.31;5096852;28;20042;-74
2023/12/05 05:11:19;;;;;;;22.42;13.15;;;;;;;3.93;90.85;100039.25;5115219;28;20439;-73
2023/12/05 05:13:45;;;;;;;26.73;13.68;;;;;;;3.98;91.44;100042.03;5108626;28;20568;-75
2023/12/05 05:16:10;;;;;;;34.90;13.77;;;;;;;4.01;91.05;100029.56;5096724;28;20058;-74
2023/12/05 05:18:39;;;;;;;23.80;13.45;;;;;;;3.91;90.67;100022.09;5096712;28;20114;-74
2023/12/05 05:21:05;;;;;;;21.30;13.20;;;;;;;4.08;91.13;100032.91;5096763;28;20027;-75
2023/12/05 05:23:31;;;;;;;25.40;15.02;;;;;;;4.14;90.57;100036.50;5093722;28;20104;-73
2023/12/05 05:25:57;;;;;;;26.95;15.93;;;;;;;3.94;91.55;100035.38;5113056;28;20028;-73
2023/12/05 05:28:22;;;;;;;23.95;15.82;;;;;;;3.89;92.04;100025.13;5092610;28;20181;-74
2023/12/05 05:30:48;;;;;;;20.65;13.88;;;;;;;4.02;91.62;100026.53;5090705;28;20070;-73
2023/12/05 05:33:14;;;;;;;31.90;15.50;;;;;;;4.05;91.65;100030.69;5114364;28;20046;-73
2023/12/05 05:35:39;;;;;;;24.10;15.20;;;;;;;4.05;92.16;100020.44;5114510;28;20035;-73
2023/12/05 05:38:05;;;;;;;23.52;14.32;;;;;;;4.04;91.70;100013.22;5094868;28;20035;-73
2023/12/05 05:40:30;;;;;;;22.52;15.68;;;;;;;4.06;92.10;100010.19;5093953;28;20034;-73
2023/12/05 05:42:56;;;;;;;26.20;16.60;;;;;;;3.97;91.87;99987.75;5086227;28;20112;-73
2023/12/05 05:45:21;;;;;;;31.10;17.60;;;;;;;3.96;91.93;99988.88;5087073;28;20515;-74
2023/12/05 05:47:47;;;;;;;32.50;18.20;;;;;;;3.77;93.66;100002.44;5105007;28;20411;-73
2023/12/05 05:50:12;;;;;;;25.30;15.38;;;;;;;3.79;94.04;100014.91;5084909;28;20115;-73
2023/12/05 05:52:38;;;;;;;29.52;16.77;;;;;;;3.61;93.55;99977.53;5085061;28;20036;-73
2023/12/05 05:55:04;;;;;;;29.10;17.73;;;;;;;3.75;93.46;99983.38;5087861;28;20032;-73
2023/12/05 05:57:30;;;;;;;30.30;17.92;;;;;;;3.88;93.83;100003.28;5100745;28;20059;-72
2023/12/05 05:59:55;;;;;;;27.85;13.93;;;;;;;3.78;94.23;100007.72;5108721;28;20085;-76
2023/12/05 06:02:21;;;;;;;24.40;14.30;;;;;;;3.61;95.08;100010.75;5090509;28;20016;-75
2023/12/05 06:04:46;;;;;;;27.48;15.75;;;;;;;3.59;94.51;100012.94;5082574;28;20031;-75
2023/12/05 06:07:12;;;;;;;27.75;17.65;;;;;;;3.25;95.85;100018.13;5094004;28;20032;-76
2023/12/05 06:09:37;;;;;;;65.45;21.05;;;;;;;3.23;97.79;100022.00;5105504;28;20027;-73
2023/12/05 06:12:04;;;;;;;36.13;18.73;;;;;;;3.29;97.60;100022.03;5108610;28;20028;-72
2023/12/05 06:14:30;;;;;;;36.38;18.50;;;;;;;3.11;98.48;100026.94;5081899;28;20085;-72
2023/12/05 06:16:55;;;;;;;33.03;16.52;;;;;;;3.02;99.31;100025.81;5082238;28;20440;-73
2023/12/05 06:19:21;;;;;;;42.00;19.13;;;;;;;3.01;99.36;100032.44;5104951;28;20028;-74
2023/12/05 06:21:46;;;;;;;38.13;17.55;;;;;;;2.75;100.00;100035.09;5092870;28;20024;-73
2023/12/05 06:24:12;;;;;;;26.13;15.80;;;;;;;2.71;100.00;100031.22;5100179;28;20031;-73
2023/12/05 06:26:37;;;;;;;24.80;14.25;;;;;;;2.56;100.00;100045.75;5096320;28;20507;-74
2023/12/05 06:29:06;;;;;;;26.17;15.65;;;;;;;2.40;100.00;100026.34;5099642;28;20055;-75
2023/12/05 06:31:32;;;;;;;27.77;16.83;;;;;;;2.43;100.00;100041.56;5072304;28;20098;-73
2023/12/05 06:34:01;;;;;;;26.80;15.23;;;;;;;2.45;100.00;100044.88;5097528;28;20466;-77
2023/12/05 06:36:26;;;;;;;24.55;16.00;;;;;;;2.41;100.00;100039.06;5093286;28;20115;-75
2023/12/05 06:38:52;;;;;;;31.10;16.20;;;;;;;2.49;100.00;100033.03;5078154;28;20131;-70
2023/12/05 06:41:17;;;;;;;28.33;15.40;;;;;;;2.71;100.00;100040.31;5090012;28;20052;-73
2023/12/05 06:43:43;;;;;;;23.48;13.60;;;;;;;2.66;100.00;100032.84;5090960;28;20156;-74
2023/12/05 06:46:08;;;;;;;31.30;17.27;;;;;;;2.79;100.00;100044.50;5080689;28;20484;-72
2023/12/05 06:48:34;;;;;;;38.47;18.52;;;;;;;2.80;100.00;100047.00;5077040;28;20024;-73
2023/12/05 06:50:59;;;;;;;38.63;20.58;;;;;;;2.90;99.74;100049.00;5093217;28;20135;-71
2023/12/05 06:53:25;;;;;;;28.98;19.20;;;;;;;2.84;98.94;100057.53;5092306;28;20050;-71
2023/12/05 06:55:50;;;;;;;38.55;18.95;;;;;;;2.76;98.66;100050.56;5108137;28;20042;-77
2023/12/05 06:58:16;;;;;;;27.70;16.55;;;;;;;2.78;98.55;100054.72;5098217;28;20027;-76
2023/12/05 07:00:42;;;;;;;27.42;18.75;;;;;;;2.60;98.70;100035.84;5089951;28;20035;-76
2023/12/05 07:03:07;;;;;;;31.77;16.98;;;;;;;2.87;97.72;100051.47;5089643;28;20050;-77
2023/12/05 07:05:33;;;;;;;29.67;18.08;;;;;;;2.89;97.48;100044.53;5101690;28;20063;-76
2023/12/05 07:08:00;;;;;;;37.95;21.60;;;;;;;2.87;96.72;100032.94;5092642;28;20028;-77
2023/12/05 07:10:26;;;;;;;29.15;18.40;;;;;;;3.00;96.88;100044.59;5097347;28;20026;-79
2023/12/05 07:12:52;;;;;;;43.90;17.92;;;;;;;3.01;97.14;100055.38;5091044;28;20110;-76
2023/12/05 07:15:17;;;;;;;27.70;16.00;;;;;;;2.97;97.38;100050.66;5090552;28;20651;-75
2023/12/05 07:17:43;;;;;;;33.88;18.58;;;;;;;2.84;97.30;100038.19;5107408;28;20031;-77
2023/12/05 07:20:09;;;;;;;39.85;21.52;;;;;;;2.89;98.15;100047.31;5099755;28;20023;-78
2023/12/05 07:22:35;;;;;;;45.63;23.63;;;;;;;3.04;98.06;100041.00;5104056;28;20041;-77
2023/12/05 07:25:01;;;;;;;36.17;19.58;;;;;;;3.09;96.35;100037.44;5100663;28;20027;-77
2023/12/05 07:27:26;;;;;;;28.95;17.92;;;;;;;3.20;95.90;100033.59;5098328;28;20448;-78
2023/12/05 07:29:51;;;;;;;30.60;18.88;;;;;;;3.17;94.85;100027.78;5098348;28;20068;-79
2023/12/05 07:32:17;;;;;;;41.95;21.35;;;;;;;3.37;94.67;100032.53;5105528;28;20023;-78
2023/12/05 07:34:43;;;;;;;37.15;21.25;;;;;;;3.38;95.31;100034.22;5098135;28;20038;-77
2023/12/05 07:37:08;;;;;;;29.33;17.05;;;;;;;3.36;93.55;100022.59;5098604;28;20031;-78
2023/12/05 07:39:34;;;;;;;27.65;16.75;;;;;;;3.41;93.89;100010.69;5093035;28;20236;-78
2023/12/05 07:42:00;;;;;;;25.05;17.63;;;;;;;3.78;92.69;100013.25;5090523;28;20429;-78
2023/12/05 07:44:25;;;;;;;32.17;18.88;;;;;;;4.00;91.34;100017.69;5102664;28;20053;-78
2023/12/05 07:46:51;;;;;;;25.70;16.08;;;;;;;4.11;89.99;99996.34;5096625;28;20026;-78
2023/12/05 07:49:16;;;;;;;28.17;17.75;;;;;;;4.22;89.12;99994.38;5072566;28;20093;-78
2023/12/05 07:51:42;;;;;;;28.20;17.75;;;;;;;4.44;88.71;99993.22;5095086;28;20416;-78
2023/12/05 07:54:07;;;;;;;26.20;16.73;;;;;;;4.41;88.00;99986.31;5105734;28;20035;-78
2023/12/05 07:56:33;;;;;;;25.98;17.00;;;;;;;4.27;88.01;99986.06;5089891;28;20039;-78
2023/12/05 07:58:58;;;;;;;31.17;19.63;;;;;;;4.48;87.79;99980.47;5087505;28;20095;-78
2023/12/05 08:01:24;;;;;;;57.65;32.25;;;;;;;4.59;88.21;99995.97;5097686;28;20027;-78
2023/12/05 08:03:49;;;;;;;26.13;16.75;;;;;;;4.54;88.07;99998.72;5078740;28;20470;-78
2023/12/05 08:06:14;;;;;;;28.35;16.50;;;;;;;4.53;87.85;99997.09;5101007;28;20059;-78
2023/12/05 08:08:40;;;;;;;28.25;17.40;;;;;;;4.46;87.53;99991.84;5098351;28;20034;-78
2023/12/05 08:11:06;;;;;;;76.85;54.80;;;;;;;4.57;87.00;99991.81;5090211;28;20024;-78
2023/12/05 08:13:31;;;;;;;29.75;19.75;;;;;;;4.64;86.59;99993.16;5102635;28;20404;-78
2023/12/05 08:15:57;;;;;;;34.67;22.35;;;;;;;4.70;85.81;99984.81;5100073;28;20031;-78
2023/12/05 08:18:22;;;;;;;33.55;20.70;;;;;;;4.75;86.03;99987.59;5106149;28;20019;-78
2023/12/05 08:20:48;;;;;;;27.27;18.40;;;;;;;4.62;85.73;99976.00;5118003;27;20060;-78
2023/12/05 08:23:14;;;;;;;30.70;18.63;;;;;;;4.83;85.78;99977.84;5087417;28;20088;-78
2023/12/05 08:25:39;;;;;;;30.52;19.42;;;;;;;4.90;84.84;99978.38;5104803;28;20051;-78
2023/12/05 08:28:05;;;;;;;29.58;17.88;;;;;;;4.95;84.57;99971.97;5090227;28;20167;-78
2023/12/05 08:30:30;;;;;;;30.10;18.83;;;;;;;4.94;84.55;99961.97;5090735;28;20028;-78
2023/12/05 08:32:57;;;;;;;29.42;18.13;;;;;;;5.04;84.81;99975.78;5109134;28;20046;-78
2023/12/05 08:35:23;;;;;;;34.50;18.70;;;;;;;4.72;85.49;99972.34;5101718;28;20416;-78
2023/12/05 08:37:49;;;;;;;32.38;19.33;;;;;;;4.63;86.32;99971.25;5095641;28;20027;-78
2023/12/05 08:40:14;;;;;;;29.13;19.05;;;;;;;4.45;85.40;99965.25;5090714;28;20466;-78
2023/12/05 08:42:42;;;;;;;34.65;18.15;;;;;;;4.25;85.86;99974.44;5093629;28;20127;-78
2023/12/05 08:45:11;;;;;;;31.48;17.88;;;;;;;4.39;87.06;99973.84;5090159;28;20396;-78
2023/12/05 08:47:38;;;;;;;26.90;17.83;;;;;;;4.49;87.05;99968.28;5090046;28;20400;-78
2023/12/05 08:50:04;;;;;;;30.23;16.08;;;;;;;4.58;86.99;99952.72;5071723;28;20016;-78
2023/12/05 08:52:30;;;;;;;25.40;15.68;;;;;;;4.55;87.21;99942.22;5072303;28;20023;-78
2023/12/05 08:54:55;;;;;;;32.38;18.05;;;;;;;4.88;85.97;99950.94;5084760;28;20024;-78
2023/12/05 08:57:21;;;;;;;31.60;18.52;;;;;;;4.82;85.27;99948.47;5087024;28;20499;-78
2023/12/05 08:59:47;;;;;;;30.42;17.35;;;;;;;4.83;84.85;99937.13;5087119;28;20061;-78
2023/12/05 09:02:13;;;;;;;28.65;16.88;;;;;;;4.65;85.28;99941.34;5089637;28;20076;-78
2023/12/05 09:04:38;;;;;;;29.35;18.23;;;;;;;4.89;84.53;99933.19;5091900;28;20031;-78
2023/12/05 09:07:04;;;;;;;29.83;17.88;;;;;;;4.95;84.42;99935.91;5093733;28;20035;-78
2023/12/05 09:09:29;;;;;;;29.05;17.75;;;;;;;4.91;85.38;99935.69;5102539;28;20027;-78
2023/12/05 09:11:56;;;;;;;33.42;19.52;;;;;;;4.97;85.72;99925.41;5077561;28;20024;-78
2023/12/05 09:14:22;;;;;;;52.42;33.17;;;;;;;5.15;85.17;99926.66;5096429;28;20020;-78
2023/12/05 09:16:47;;;;;;;41.13;20.23;;;;;;;5.39;83.37;99929.53;5086156;28;20251;-74
2023/12/05 09:19:13;;;;;;;33.20;17.88;;;;;;;4.90;83.49;99926.53;5089470;28;20506;-74
2023/12/05 09:21:38;;;;;;;35.13;21.58;;;;;;;5.04;85.09;99928.66;5089541;28;20050;-74
2023/12/05 09:24:08;;;;;;;28.13;17.65;;;;;;;4.92;84.70;99921.50;5089423;28;20020;-74
2023/12/05 09:26:33;;;;;;;27.13;17.35;;;;;;;5.26;84.16;99925.50;5107365;28;20019;-74
2023/12/05 09:28:59;;;;;;;30.42;17.33;;;;;;;5.02;83.70;99919.81;5094550;28;20469;-74
2023/12/05 09:31:24;;;;;;;33.47;17.70;;;;;;;5.20;83.11;99905.28;5071092;28;20508;-74
2023/12/05 09:33:50;;;;;;;29.65;18.67;;;;;;;4.90;84.89;99911.84;5098666;28;20042;-75
2023/12/05 09:36:16;;;;;;;36.47;19.02;;;;;;;4.69;86.25;99903.63;5108062;28;20549;-75
2023/12/05 09:38:42;;;;;;;30.83;18.05;;;;;;;4.72;85.97;99900.28;5089499;28;20025;-76
2023/12/05 09:41:10;;;;;;;34.13;20.65;;;;;;;4.81;85.65;99894.16;5095720;28;20044;-75
2023/12/05 09:43:39;;;;;;;27.98;16.92;;;;;;;4.78;85.33;99884.47;5094670;28;20020;-75
2023/12/05 09:46:08;;;;;;;29.98;17.88;;;;;;;4.94;83.92;99876.03;5083069;28;20131;-74
2023/12/05 09:48:58;;;;;;;29.88;18.38;;;;;;;4.94;85.22;99873.28;5110392;28;20020;-74
2023/12/05 09:51:24;;;;;;;38.78;19.73;;;;;;;5.06;86.13;99871.81;5097446;28;20031;-74
2023/12/05 09:53:53;;;;;;;41.28;19.23;;;;;;;5.05;87.22;99875.69;5093882;28;20085;-74
2023/12/05 09:56:20;;;;;;;31.80;17.95;;;;;;;5.34;86.15;99865.78;5092752;28;20028;-74
2023/12/05 09:58:46;;;;;;;33.85;18.98;;;;;;;5.52;85.07;99861.47;5098952;28;20064;-75
2023/12/05 10:01:16;;;;;;;29.70;18.13;;;;;;;5.56;84.22;99850.63;5104721;28;20028;-73
2023/12/05 10:03:44;;;;;;;36.80;17.23;;;;;;;5.31;84.04;99856.09;5098146;28;20016;-72
2023/12/05 10:06:11;;;;;;;31.17;19.02;;;;;;;5.30;84.81;99848.03;5085538;28;20077;-73
2023/12/05 10:08:38;;;;;;;26.35;16.23;;;;;;;5.25;84.34;99839.78;5102103;28;20454;-74
2023/12/05 10:11:10;;;;;;;76.80;19.45;;;;;;;5.55;84.32;99819.25;5101210;28;20027;-75
2023/12/05 10:13:38;;;;;;;28.48;15.05;;;;;;;5.01;84.52;99813.63;5111755;28;20016;-75
2023/12/05 10:16:05;;;;;;;29.35;16.40;;;;;;;5.47;83.84;99815.16;5085292;28;20038;-76
2023/12/05 10:18:33;;;;;;;35.33;16.58;;;;;;;5.12;84.89;99808.81;5100995;28;20054;-75
2023/12/05 10:20:58;;;;;;;29.02;16.73;;;;;;;5.31;84.62;99799.78;5095914;28;20076;-75
2023/12/05 10:23:24;;;;;;;28.40;16.58;;;;;;;5.36;84.51;99804.44;5073983;28;20027;-74
2023/12/05 10:25:51;;;;;;;27.10;16.45;;;;;;;5.11;85.87;99801.63;5110829;28;20096;-74
2023/12/05 10:28:17;;;;;;;32.15;16.33;;;;;;;4.64;86.81;99793.66;5076574;28;20114;-75
2023/12/05 10:30:43;;;;;;;34.10;16.40;;;;;;;5.03;86.08;99782.81;5111088;28;20564;-74
2023/12/05 10:33:21;;;;;;;25.92;15.80;;;;;;;5.26;86.30;99761.84;5101520;28;20032;-75
2023/12/05 10:35:47;;;;;;;28.38;16.77;;;;;;;5.68;85.36;99776.09;5094462;28;20035;-74
2023/12/05 10:38:15;;;;;;;27.67;15.38;;;;;;;5.78;83.96;99766.00;5095727;28;20152;-74
2023/12/05 10:40:57;;;;;;;30.58;17.40;;;;;;;5.82;82.21;99776.22;5089558;28;20440;-74
2023/12/05 10:43:24;;;;;;;31.65;18.75;;;;;;;5.81;82.80;99774.56;5111144;28;20034;-74
2023/12/05 10:45:50;;;;;;;33.45;18.25;;;;;;;5.94;82.95;99761.94;5111282;28;20538;-73
2023/12/05 10:48:17;;;;;;;28.75;16.67;;;;;;;5.34;83.74;99765.91;5090395;28;20031;-76
2023/12/05 10:50:48;;;;;;;26.88;16.27;;;;;;;5.29;85.13;99760.41;5071566;28;20474;-74
2023/12/05 10:53:14;;;;;;;31.58;16.60;;;;;;;5.43;85.33;99755.00;5097824;27;20607;-75
2023/12/05 10:55:41;;;;;;;29.80;17.13;;;;;;;5.24;86.05;99758.50;5084867;28;20061;-74
2023/12/05 10:58:11;;;;;;;32.75;18.42;;;;;;;5.58;87.45;99754.03;5088587;28;20122;-74
2023/12/05 11:00:39;;;;;;;27.00;18.02;;;;;;;5.14;87.36;99745.56;5104496;28;20028;-75
2023/12/05 11:03:05;;;;;;;29.35;17.50;;;;;;;5.16;86.53;99759.97;5078048;28;20873;-74
2023/12/05 11:05:32;;;;;;;36.50;18.48;;;;;;;5.58;85.94;99746.50;5107017;28;20020;-77
2023/12/05 11:07:58;;;;;;;31.50;18.77;;;;;;;5.83;85.82;99739.00;5105603;28;20023;-74
2023/12/05 11:10:25;;;;;;;29.00;17.52;;;;;;;6.06;85.21;99735.72;5093198;28;20056;-76
2023/12/05 11:12:52;;;;;;;32.45;18.30;;;;;;;6.14;84.96;99741.41;5105446;28;20056;-76
2023/12/05 11:15:28;;;;;;;29.15;18.10;;;;;;;6.02;85.42;99736.28;5091652;28;20051;-76